sensor_id;sensor_type;location;lat;lon;timestamp;temperature;humidity
60242;SHT30;46103;52.076;113.488;2022-09-09T00:06:42;13.72;66.53
60242;SHT30;46103;52.076;113.488;2022-09-09T00:10:13;13.83;66.35
60242;SHT30;46103;52.076;113.488;2022-09-09T00:16:25;14.12;66.00
60242;SHT30;46103;52.076;113.488;2022-09-09T00:23:03;14.38;65.43
60242;SHT30;46103;52.076;113.488;2022-09-09T00:26:35;14.42;65.49
60242;SHT30;46103;52.076;113.488;2022-09-09T00:29:50;14.60;65.59
60242;SHT30;46103;52.076;113.488;2022-09-09T00:33:10;14.79;65.31
60242;SHT30;46103;52.076;113.488;2022-09-09T00:36:18;14.93;64.80
60242;SHT30;46103;52.076;113.488;2022-09-09T00:39:36;14.98;65.15
60242;SHT30;46103;52.076;113.488;2022-09-09T00:42:42;15.07;65.33
60242;SHT30;46103;52.076;113.488;2022-09-09T00:52:56;15.42;63.92
60242;SHT30;46103;52.076;113.488;2022-09-09T00:56:19;15.55;63.36
60242;SHT30;46103;52.076;113.488;2022-09-09T01:03:17;15.97;62.59
60242;SHT30;46103;52.076;113.488;2022-09-09T01:06:35;16.13;62.07
60242;SHT30;46103;52.076;113.488;2022-09-09T01:09:59;16.25;62.13
60242;SHT30;46103;52.076;113.488;2022-09-09T01:13:11;16.22;62.24
60242;SHT30;46103;52.076;113.488;2022-09-09T01:16:17;16.32;62.17
60242;SHT30;46103;52.076;113.488;2022-09-09T01:23:04;16.71;61.41
60242;SHT30;46103;52.076;113.488;2022-09-09T01:26:35;16.85;61.31
60242;SHT30;46103;52.076;113.488;2022-09-09T01:29:43;17.04;60.83
60242;SHT30;46103;52.076;113.488;2022-09-09T01:32:55;17.11;60.60
60242;SHT30;46103;52.076;113.488;2022-09-09T01:36:06;17.16;60.78
60242;SHT30;46103;52.076;113.488;2022-09-09T01:39:20;17.25;60.54
60242;SHT30;46103;52.076;113.488;2022-09-09T01:42:31;17.22;60.90
60242;SHT30;46103;52.076;113.488;2022-09-09T01:45:37;17.43;60.29
60242;SHT30;46103;52.076;113.488;2022-09-09T01:48:42;17.39;60.54
60242;SHT30;46103;52.076;113.488;2022-09-09T01:51:50;17.60;60.06
60242;SHT30;46103;52.076;113.488;2022-09-09T01:54:59;17.74;59.95
60242;SHT30;46103;52.076;113.488;2022-09-09T01:58:32;17.90;59.58
60242;SHT30;46103;52.076;113.488;2022-09-09T02:08:15;18.52;57.74
60242;SHT30;46103;52.076;113.488;2022-09-09T02:11:31;18.67;57.40
60242;SHT30;46103;52.076;113.488;2022-09-09T02:14:46;18.89;57.00
60242;SHT30;46103;52.076;113.488;2022-09-09T02:17:52;19.08;56.37
60242;SHT30;46103;52.076;113.488;2022-09-09T02:20:57;19.17;56.06
60242;SHT30;46103;52.076;113.488;2022-09-09T02:24:05;19.22;56.10
60242;SHT30;46103;52.076;113.488;2022-09-09T02:27:20;19.46;55.17
60242;SHT30;46103;52.076;113.488;2022-09-09T02:30:28;19.66;54.44
60242;SHT30;46103;52.076;113.488;2022-09-09T02:33:38;19.82;54.39
60242;SHT30;46103;52.076;113.488;2022-09-09T02:36:45;19.92;54.18
60242;SHT30;46103;52.076;113.488;2022-09-09T02:39:49;20.01;53.45
60242;SHT30;46103;52.076;113.488;2022-09-09T02:42:56;20.14;53.32
60242;SHT30;46103;52.076;113.488;2022-09-09T02:56:27;21.02;50.81
60242;SHT30;46103;52.076;113.488;2022-09-09T02:59:33;21.16;49.72
60242;SHT30;46103;52.076;113.488;2022-09-09T03:02:37;21.27;49.91
60242;SHT30;46103;52.076;113.488;2022-09-09T03:05:43;21.37;48.80
60242;SHT30;46103;52.076;113.488;2022-09-09T03:08:49;21.43;48.51
60242;SHT30;46103;52.076;113.488;2022-09-09T03:11:59;21.57;48.13
60242;SHT30;46103;52.076;113.488;2022-09-09T03:15:06;21.66;48.18
60242;SHT30;46103;52.076;113.488;2022-09-09T03:18:10;21.86;48.04
60242;SHT30;46103;52.076;113.488;2022-09-09T03:21:15;22.12;47.47
60242;SHT30;46103;52.076;113.488;2022-09-09T03:24:19;22.12;47.43
60242;SHT30;46103;52.076;113.488;2022-09-09T03:27:23;22.21;47.28
60242;SHT30;46103;52.076;113.488;2022-09-09T03:30:27;22.36;46.98
60242;SHT30;46103;52.076;113.488;2022-09-09T03:33:32;22.51;46.81
60242;SHT30;46103;52.076;113.488;2022-09-09T03:36:37;22.68;46.16
60242;SHT30;46103;52.076;113.488;2022-09-09T03:39:41;22.74;45.96
60242;SHT30;46103;52.076;113.488;2022-09-09T03:42:45;22.85;45.47
60242;SHT30;46103;52.076;113.488;2022-09-09T03:45:51;23.02;44.92
60242;SHT30;46103;52.076;113.488;2022-09-09T03:48:55;23.15;44.10
60242;SHT30;46103;52.076;113.488;2022-09-09T03:52:01;23.27;44.11
60242;SHT30;46103;52.076;113.488;2022-09-09T03:55:06;23.31;43.79
60242;SHT30;46103;52.076;113.488;2022-09-09T03:58:15;23.47;43.59
60242;SHT30;46103;52.076;113.488;2022-09-09T04:01:19;23.50;43.14
60242;SHT30;46103;52.076;113.488;2022-09-09T04:04:23;23.39;42.62
60242;SHT30;46103;52.076;113.488;2022-09-09T04:07:26;23.29;42.68
60242;SHT30;46103;52.076;113.488;2022-09-09T04:10:31;23.39;42.80
60242;SHT30;46103;52.076;113.488;2022-09-09T04:13:36;23.63;42.25
60242;SHT30;46103;52.076;113.488;2022-09-09T04:16:45;23.87;41.72
60242;SHT30;46103;52.076;113.488;2022-09-09T04:19:49;24.15;41.14
60242;SHT30;46103;52.076;113.488;2022-09-09T04:22:53;24.33;40.57
60242;SHT30;46103;52.076;113.488;2022-09-09T04:26:00;24.61;40.13
60242;SHT30;46103;52.076;113.488;2022-09-09T04:29:07;24.83;39.37
60242;SHT30;46103;52.076;113.488;2022-09-09T04:32:10;25.12;38.58
60242;SHT30;46103;52.076;113.488;2022-09-09T04:35:15;25.34;37.69
60242;SHT30;46103;52.076;113.488;2022-09-09T04:38:20;25.58;37.38
60242;SHT30;46103;52.076;113.488;2022-09-09T04:41:26;25.83;36.21
60242;SHT30;46103;52.076;113.488;2022-09-09T04:44:29;26.04;35.69
60242;SHT30;46103;52.076;113.488;2022-09-09T04:47:34;26.29;34.61
60242;SHT30;46103;52.076;113.488;2022-09-09T04:50:39;26.59;34.64
60242;SHT30;46103;52.076;113.488;2022-09-09T04:53:46;26.92;34.36
60242;SHT30;46103;52.076;113.488;2022-09-09T04:56:51;27.23;33.76
60242;SHT30;46103;52.076;113.488;2022-09-09T04:59:55;27.38;33.03
60242;SHT30;46103;52.076;113.488;2022-09-09T05:03:03;27.33;32.29
60242;SHT30;46103;52.076;113.488;2022-09-09T05:06:10;27.17;31.92
60242;SHT30;46103;52.076;113.488;2022-09-09T05:09:15;27.08;32.48
60242;SHT30;46103;52.076;113.488;2022-09-09T05:12:19;27.11;33.39
60242;SHT30;46103;52.076;113.488;2022-09-09T05:15:25;27.29;33.19
60242;SHT30;46103;52.076;113.488;2022-09-09T05:18:30;27.42;32.23
60242;SHT30;46103;52.076;113.488;2022-09-09T05:21:34;27.51;31.22
60242;SHT30;46103;52.076;113.488;2022-09-09T05:24:38;27.45;31.48
60242;SHT30;46103;52.076;113.488;2022-09-09T05:27:42;27.52;31.66
60242;SHT30;46103;52.076;113.488;2022-09-09T05:30:45;27.72;31.52
60242;SHT30;46103;52.076;113.488;2022-09-09T05:33:49;27.93;31.31
60242;SHT30;46103;52.076;113.488;2022-09-09T05:36:53;28.05;30.26
60242;SHT30;46103;52.076;113.488;2022-09-09T05:39:58;28.18;29.83
60242;SHT30;46103;52.076;113.488;2022-09-09T05:43:04;28.32;29.35
60242;SHT30;46103;52.076;113.488;2022-09-09T05:46:13;28.45;28.89
60242;SHT30;46103;52.076;113.488;2022-09-09T05:49:17;28.58;28.24
60242;SHT30;46103;52.076;113.488;2022-09-09T05:52:22;28.68;28.52
60242;SHT30;46103;52.076;113.488;2022-09-09T05:55:27;28.68;28.59
60242;SHT30;46103;52.076;113.488;2022-09-09T05:58:34;28.78;28.31
60242;SHT30;46103;52.076;113.488;2022-09-09T06:01:40;28.91;28.49
60242;SHT30;46103;52.076;113.488;2022-09-09T06:04:52;29.09;28.11
60242;SHT30;46103;52.076;113.488;2022-09-09T06:08:02;29.33;28.01
60242;SHT30;46103;52.076;113.488;2022-09-09T06:11:11;29.57;27.75
60242;SHT30;46103;52.076;113.488;2022-09-09T06:14:15;29.78;27.81
60242;SHT30;46103;52.076;113.488;2022-09-09T06:17:23;30.02;27.22
60242;SHT30;46103;52.076;113.488;2022-09-09T06:20:26;30.33;26.83
60242;SHT30;46103;52.076;113.488;2022-09-09T06:23:34;30.55;26.82
60242;SHT30;46103;52.076;113.488;2022-09-09T06:26:40;30.84;26.30
60242;SHT30;46103;52.076;113.488;2022-09-09T06:29:52;31.15;25.84
60242;SHT30;46103;52.076;113.488;2022-09-09T06:32:56;31.33;25.56
60242;SHT30;46103;52.076;113.488;2022-09-09T06:36:02;31.50;25.36
60242;SHT30;46103;52.076;113.488;2022-09-09T06:39:09;31.80;25.23
60242;SHT30;46103;52.076;113.488;2022-09-09T06:42:17;32.14;25.03
60242;SHT30;46103;52.076;113.488;2022-09-09T06:45:32;32.35;26.41
60242;SHT30;46103;52.076;113.488;2022-09-09T06:48:35;32.53;24.00
60242;SHT30;46103;52.076;113.488;2022-09-09T06:51:45;32.84;26.37
60242;SHT30;46103;52.076;113.488;2022-09-09T06:54:50;33.06;23.76
60242;SHT30;46103;52.076;113.488;2022-09-09T06:57:54;33.31;23.31
60242;SHT30;46103;52.076;113.488;2022-09-09T07:01:07;33.64;23.14
60242;SHT30;46103;52.076;113.488;2022-09-09T07:04:11;33.89;22.86
60242;SHT30;46103;52.076;113.488;2022-09-09T07:07:18;33.96;22.60
60242;SHT30;46103;52.076;113.488;2022-09-09T07:10:24;33.99;22.51
60242;SHT30;46103;52.076;113.488;2022-09-09T07:13:27;34.30;21.98
60242;SHT30;46103;52.076;113.488;2022-09-09T07:16:31;34.72;21.90
60242;SHT30;46103;52.076;113.488;2022-09-09T07:19:37;34.96;20.99
60242;SHT30;46103;52.076;113.488;2022-09-09T07:22:41;35.38;20.31
60242;SHT30;46103;52.076;113.488;2022-09-09T07:25:45;35.83;19.96
60242;SHT30;46103;52.076;113.488;2022-09-09T07:28:51;36.46;19.43
60242;SHT30;46103;52.076;113.488;2022-09-09T07:31:56;37.07;18.44
60242;SHT30;46103;52.076;113.488;2022-09-09T07:35:07;37.35;18.25
60242;SHT30;46103;52.076;113.488;2022-09-09T07:38:10;38.06;17.59
60242;SHT30;46103;52.076;113.488;2022-09-09T07:41:19;38.64;17.32
60242;SHT30;46103;52.076;113.488;2022-09-09T07:44:25;39.10;16.99
60242;SHT30;46103;52.076;113.488;2022-09-09T07:47:43;39.53;16.80
60242;SHT30;46103;52.076;113.488;2022-09-09T07:50:47;39.97;16.46
60242;SHT30;46103;52.076;113.488;2022-09-09T07:53:54;40.12;15.63
60242;SHT30;46103;52.076;113.488;2022-09-09T07:56:58;40.12;15.55
60242;SHT30;46103;52.076;113.488;2022-09-09T08:00:05;40.23;15.45
60242;SHT30;46103;52.076;113.488;2022-09-09T08:03:15;40.22;15.44
60242;SHT30;46103;52.076;113.488;2022-09-09T08:06:20;40.55;15.31
60242;SHT30;46103;52.076;113.488;2022-09-09T08:09:25;40.40;14.91
60242;SHT30;46103;52.076;113.488;2022-09-09T08:13:00;39.91;15.26
60242;SHT30;46103;52.076;113.488;2022-09-09T08:16:30;40.31;14.94
60242;SHT30;46103;52.076;113.488;2022-09-09T08:19:35;40.50;15.11
60242;SHT30;46103;52.076;113.488;2022-09-09T08:22:44;40.56;14.70
60242;SHT30;46103;52.076;113.488;2022-09-09T08:25:48;40.38;14.80
60242;SHT30;46103;52.076;113.488;2022-09-09T08:28:54;40.66;14.38
60242;SHT30;46103;52.076;113.488;2022-09-09T08:32:00;41.01;14.54
60242;SHT30;46103;52.076;113.488;2022-09-09T08:35:06;40.82;14.36
60242;SHT30;46103;52.076;113.488;2022-09-09T08:38:10;41.05;14.30
60242;SHT30;46103;52.076;113.488;2022-09-09T08:49:01;41.82;14.17
60242;SHT30;46103;52.076;113.488;2022-09-09T08:52:16;41.85;14.25
60242;SHT30;46103;52.076;113.488;2022-09-09T08:56:08;41.85;15.30
60242;SHT30;46103;52.076;113.488;2022-09-09T08:58:53;42.04;13.89
60242;SHT30;46103;52.076;113.488;2022-09-09T09:05:59;42.25;14.43
60242;SHT30;46103;52.076;113.488;2022-09-09T09:12:17;42.48;15.03
60242;SHT30;46103;52.076;113.488;2022-09-09T09:15:31;42.63;14.35
60242;SHT30;46103;52.076;113.488;2022-09-09T09:18:41;42.72;14.10
60242;SHT30;46103;52.076;113.488;2022-09-09T09:21:53;42.78;13.86
60242;SHT30;46103;52.076;113.488;2022-09-09T09:28:29;42.79;12.88
60242;SHT30;46103;52.076;113.488;2022-09-09T09:31:38;42.47;13.13
60242;SHT30;46103;52.076;113.488;2022-09-09T09:34:41;42.66;13.08
60242;SHT30;46103;52.076;113.488;2022-09-09T09:37:45;42.61;13.33
60242;SHT30;46103;52.076;113.488;2022-09-09T09:41:10;42.41;14.05
60242;SHT30;46103;52.076;113.488;2022-09-09T09:44:27;42.19;14.00
60242;SHT30;46103;52.076;113.488;2022-09-09T09:47:38;42.07;14.14
60242;SHT30;46103;52.076;113.488;2022-09-09T09:50:58;42.08;14.22
60242;SHT30;46103;52.076;113.488;2022-09-09T09:54:34;41.94;14.57
60242;SHT30;46103;52.076;113.488;2022-09-09T09:57:40;41.79;14.35
60242;SHT30;46103;52.076;113.488;2022-09-09T10:00:50;41.48;14.48
60242;SHT30;46103;52.076;113.488;2022-09-09T10:04:00;41.15;14.91
60242;SHT30;46103;52.076;113.488;2022-09-09T10:07:22;40.76;15.32
60242;SHT30;46103;52.076;113.488;2022-09-09T10:34:53;34.67;21.96
60242;SHT30;46103;52.076;113.488;2022-09-09T10:41:26;33.65;22.78
60242;SHT30;46103;52.076;113.488;2022-09-09T10:44:55;32.97;23.40
60242;SHT30;46103;52.076;113.488;2022-09-09T10:48:45;32.18;24.06
60242;SHT30;46103;52.076;113.488;2022-09-09T10:55:18;30.92;25.25
60242;SHT30;46103;52.076;113.488;2022-09-09T10:58:29;30.28;26.27
60242;SHT30;46103;52.076;113.488;2022-09-09T11:05:19;29.54;27.85
60242;SHT30;46103;52.076;113.488;2022-09-09T11:08:26;29.25;26.95
60242;SHT30;46103;52.076;113.488;2022-09-09T11:11:44;28.94;27.43
60242;SHT30;46103;52.076;113.488;2022-09-09T11:15:03;28.65;28.02
60242;SHT30;46103;52.076;113.488;2022-09-09T11:18:14;28.48;28.72
60242;SHT30;46103;52.076;113.488;2022-09-09T11:21:25;28.30;30.44
60242;SHT30;46103;52.076;113.488;2022-09-09T11:24:41;27.70;31.78
60242;SHT30;46103;52.076;113.488;2022-09-09T11:34:53;26.58;32.89
60242;SHT30;46103;52.076;113.488;2022-09-09T11:38:12;26.37;32.57
60242;SHT30;46103;52.076;113.488;2022-09-09T11:41:20;26.22;33.73
60242;SHT30;46103;52.076;113.488;2022-09-09T11:44:29;26.11;34.78
60242;SHT30;46103;52.076;113.488;2022-09-09T11:47:33;25.96;35.08
60242;SHT30;46103;52.076;113.488;2022-09-09T11:50:37;25.84;35.11
60242;SHT30;46103;52.076;113.488;2022-09-09T11:53:52;25.76;36.14
60242;SHT30;46103;52.076;113.488;2022-09-09T11:56:56;25.61;35.75
60242;SHT30;46103;52.076;113.488;2022-09-09T12:00:00;25.43;34.27
60242;SHT30;46103;52.076;113.488;2022-09-09T12:06:46;25.03;35.32
60242;SHT30;46103;52.076;113.488;2022-09-09T12:13:19;24.74;35.84
60242;SHT30;46103;52.076;113.488;2022-09-09T12:16:35;24.61;36.41
60242;SHT30;46103;52.076;113.488;2022-09-09T12:19:44;24.43;37.56
60242;SHT30;46103;52.076;113.488;2022-09-09T12:30:14;24.22;39.24
60242;SHT30;46103;52.076;113.488;2022-09-09T12:33:19;24.08;39.37
60242;SHT30;46103;52.076;113.488;2022-09-09T12:36:27;23.98;38.53
60242;SHT30;46103;52.076;113.488;2022-09-09T12:39:40;23.67;40.46
60242;SHT30;46103;52.076;113.488;2022-09-09T12:42:49;23.42;41.03
60242;SHT30;46103;52.076;113.488;2022-09-09T12:45:57;23.30;41.66
60242;SHT30;46103;52.076;113.488;2022-09-09T12:49:04;23.24;41.62
60242;SHT30;46103;52.076;113.488;2022-09-09T12:55:30;23.01;42.48
60242;SHT30;46103;52.076;113.488;2022-09-09T12:58:35;22.95;42.64
60242;SHT30;46103;52.076;113.488;2022-09-09T13:01:39;22.98;42.44
60242;SHT30;46103;52.076;113.488;2022-09-09T13:04:43;22.94;42.26
60242;SHT30;46103;52.076;113.488;2022-09-09T13:07:50;22.90;42.54
60242;SHT30;46103;52.076;113.488;2022-09-09T13:11:00;22.84;42.52
60242;SHT30;46103;52.076;113.488;2022-09-09T13:14:06;22.74;42.71
60242;SHT30;46103;52.076;113.488;2022-09-09T13:17:23;22.63;42.46
60242;SHT30;46103;52.076;113.488;2022-09-09T13:20:27;22.57;42.41
60242;SHT30;46103;52.076;113.488;2022-09-09T13:23:34;22.55;41.48
60242;SHT30;46103;52.076;113.488;2022-09-09T13:26:38;22.50;41.93
60242;SHT30;46103;52.076;113.488;2022-09-09T13:29:51;22.37;42.40
60242;SHT30;46103;52.076;113.488;2022-09-09T13:36:30;22.30;41.91
60242;SHT30;46103;52.076;113.488;2022-09-09T13:39:36;22.12;41.41
60242;SHT30;46103;52.076;113.488;2022-09-09T13:42:41;22.06;40.52
60242;SHT30;46103;52.076;113.488;2022-09-09T13:45:56;22.00;40.93
60242;SHT30;46103;52.076;113.488;2022-09-09T13:49:21;21.92;41.32
60242;SHT30;46103;52.076;113.488;2022-09-09T13:52:26;21.79;41.40
60242;SHT30;46103;52.076;113.488;2022-09-09T13:55:36;21.52;42.27
60242;SHT30;46103;52.076;113.488;2022-09-09T13:58:39;21.38;43.58
60242;SHT30;46103;52.076;113.488;2022-09-09T14:01:44;21.11;44.77
60242;SHT30;46103;52.076;113.488;2022-09-09T14:04:47;20.87;45.38
60242;SHT30;46103;52.076;113.488;2022-09-09T14:07:54;20.68;45.12
60242;SHT30;46103;52.076;113.488;2022-09-09T14:10:57;20.48;45.93
60242;SHT30;46103;52.076;113.488;2022-09-09T14:14:02;20.32;47.47
60242;SHT30;46103;52.076;113.488;2022-09-09T14:17:06;20.11;47.85
60242;SHT30;46103;52.076;113.488;2022-09-09T14:20:10;19.93;48.82
60242;SHT30;46103;52.076;113.488;2022-09-09T14:23:16;19.69;50.21
60242;SHT30;46103;52.076;113.488;2022-09-09T14:26:21;19.56;50.41
60242;SHT30;46103;52.076;113.488;2022-09-09T14:29:24;19.48;50.31
60242;SHT30;46103;52.076;113.488;2022-09-09T14:32:30;19.44;49.56
60242;SHT30;46103;52.076;113.488;2022-09-09T14:35:33;19.44;49.27
60242;SHT30;46103;52.076;113.488;2022-09-09T14:38:38;19.49;49.10
60242;SHT30;46103;52.076;113.488;2022-09-09T14:41:41;19.48;49.46
60242;SHT30;46103;52.076;113.488;2022-09-09T14:44:45;19.42;49.18
60242;SHT30;46103;52.076;113.488;2022-09-09T14:47:50;19.45;49.00
60242;SHT30;46103;52.076;113.488;2022-09-09T14:50:54;19.45;48.84
60242;SHT30;46103;52.076;113.488;2022-09-09T14:53:59;19.46;48.83
60242;SHT30;46103;52.076;113.488;2022-09-09T14:57:03;19.42;48.85
60242;SHT30;46103;52.076;113.488;2022-09-09T15:00:08;19.45;48.77
60242;SHT30;46103;52.076;113.488;2022-09-09T15:03:13;19.42;48.51
60242;SHT30;46103;52.076;113.488;2022-09-09T15:06:16;19.35;48.67
60242;SHT30;46103;52.076;113.488;2022-09-09T15:09:20;19.38;48.71
60242;SHT30;46103;52.076;113.488;2022-09-09T15:12:24;19.38;48.48
60242;SHT30;46103;52.076;113.488;2022-09-09T15:15:27;19.36;48.57
60242;SHT30;46103;52.076;113.488;2022-09-09T15:18:32;19.36;48.78
60242;SHT30;46103;52.076;113.488;2022-09-09T15:21:36;19.32;48.60
60242;SHT30;46103;52.076;113.488;2022-09-09T15:24:40;19.24;48.62
60242;SHT30;46103;52.076;113.488;2022-09-09T15:27:44;19.17;48.95
60242;SHT30;46103;52.076;113.488;2022-09-09T15:30:50;19.04;49.34
60242;SHT30;46103;52.076;113.488;2022-09-09T15:34:04;18.89;50.16
60242;SHT30;46103;52.076;113.488;2022-09-09T15:37:10;18.83;50.85
60242;SHT30;46103;52.076;113.488;2022-09-09T15:40:16;18.77;51.03
60242;SHT30;46103;52.076;113.488;2022-09-09T15:43:20;18.66;51.44
60242;SHT30;46103;52.076;113.488;2022-09-09T15:46:28;18.69;51.32
60242;SHT30;46103;52.076;113.488;2022-09-09T15:49:31;18.62;52.42
60242;SHT30;46103;52.076;113.488;2022-09-09T15:52:35;18.60;51.78
60242;SHT30;46103;52.076;113.488;2022-09-09T15:55:38;18.52;52.09
60242;SHT30;46103;52.076;113.488;2022-09-09T15:58:42;18.43;52.55
60242;SHT30;46103;52.076;113.488;2022-09-09T16:01:47;18.45;52.34
60242;SHT30;46103;52.076;113.488;2022-09-09T16:04:50;18.32;52.75
60242;SHT30;46103;52.076;113.488;2022-09-09T16:07:53;18.26;53.39
60242;SHT30;46103;52.076;113.488;2022-09-09T16:11:04;18.16;53.35
60242;SHT30;46103;52.076;113.488;2022-09-09T16:14:14;18.15;53.58
60242;SHT30;46103;52.076;113.488;2022-09-09T16:17:21;18.12;53.74
60242;SHT30;46103;52.076;113.488;2022-09-09T16:20:23;18.16;53.81
60242;SHT30;46103;52.076;113.488;2022-09-09T16:23:28;17.90;54.38
60242;SHT30;46103;52.076;113.488;2022-09-09T16:26:33;17.49;56.10
60242;SHT30;46103;52.076;113.488;2022-09-09T16:29:37;17.31;57.15
60242;SHT30;46103;52.076;113.488;2022-09-09T16:32:40;17.22;57.43
60242;SHT30;46103;52.076;113.488;2022-09-09T16:35:44;17.14;58.02
60242;SHT30;46103;52.076;113.488;2022-09-09T16:38:52;17.01;58.38
60242;SHT30;46103;52.076;113.488;2022-09-09T16:41:57;16.92;58.50
60242;SHT30;46103;52.076;113.488;2022-09-09T16:45:00;16.80;59.05
60242;SHT30;46103;52.076;113.488;2022-09-09T16:48:04;16.78;59.68
60242;SHT30;46103;52.076;113.488;2022-09-09T16:51:11;16.75;60.72
60242;SHT30;46103;52.076;113.488;2022-09-09T16:54:17;16.81;59.78
60242;SHT30;46103;52.076;113.488;2022-09-09T16:57:21;16.89;59.78
60242;SHT30;46103;52.076;113.488;2022-09-09T17:00:24;17.01;59.66
60242;SHT30;46103;52.076;113.488;2022-09-09T17:03:31;17.05;59.62
60242;SHT30;46103;52.076;113.488;2022-09-09T17:06:35;17.00;59.73
60242;SHT30;46103;52.076;113.488;2022-09-09T17:09:43;17.00;60.83
60242;SHT30;46103;52.076;113.488;2022-09-09T17:12:48;16.91;62.53
60242;SHT30;46103;52.076;113.488;2022-09-09T17:15:51;16.87;63.59
60242;SHT30;46103;52.076;113.488;2022-09-09T17:18:56;16.83;62.59
60242;SHT30;46103;52.076;113.488;2022-09-09T17:22:00;16.73;62.19
60242;SHT30;46103;52.076;113.488;2022-09-09T17:25:19;16.59;62.86
60242;SHT30;46103;52.076;113.488;2022-09-09T17:28:27;16.42;63.41
60242;SHT30;46103;52.076;113.488;2022-09-09T17:31:34;16.29;64.07
60242;SHT30;46103;52.076;113.488;2022-09-09T17:34:37;16.30;62.65
60242;SHT30;46103;52.076;113.488;2022-09-09T17:37:42;16.29;61.85
60242;SHT30;46103;52.076;113.488;2022-09-09T17:40:45;16.28;61.55
60242;SHT30;46103;52.076;113.488;2022-09-09T17:43:50;16.28;61.40
60242;SHT30;46103;52.076;113.488;2022-09-09T17:46:54;16.25;61.50
60242;SHT30;46103;52.076;113.488;2022-09-09T17:49:59;16.22;61.75
60242;SHT30;46103;52.076;113.488;2022-09-09T17:53:03;16.20;61.98
60242;SHT30;46103;52.076;113.488;2022-09-09T17:56:10;16.18;62.14
60242;SHT30;46103;52.076;113.488;2022-09-09T17:59:15;16.13;62.74
60242;SHT30;46103;52.076;113.488;2022-09-09T18:02:19;16.12;62.64
60242;SHT30;46103;52.076;113.488;2022-09-09T18:05:23;16.09;62.50
60242;SHT30;46103;52.076;113.488;2022-09-09T18:08:27;15.99;62.92
60242;SHT30;46103;52.076;113.488;2022-09-09T18:11:41;15.84;63.03
60242;SHT30;46103;52.076;113.488;2022-09-09T18:14:45;15.81;63.34
60242;SHT30;46103;52.076;113.488;2022-09-09T18:17:50;15.75;62.51
60242;SHT30;46103;52.076;113.488;2022-09-09T18:21:02;15.72;62.50
60242;SHT30;46103;52.076;113.488;2022-09-09T18:24:09;15.77;62.72
60242;SHT30;46103;52.076;113.488;2022-09-09T18:27:13;15.72;62.91
60242;SHT30;46103;52.076;113.488;2022-09-09T18:30:17;15.75;62.91
60242;SHT30;46103;52.076;113.488;2022-09-09T18:33:22;15.72;63.18
60242;SHT30;46103;52.076;113.488;2022-09-09T18:36:31;15.70;62.92
60242;SHT30;46103;52.076;113.488;2022-09-09T18:39:36;15.68;63.08
60242;SHT30;46103;52.076;113.488;2022-09-09T18:42:40;15.60;63.85
60242;SHT30;46103;52.076;113.488;2022-09-09T18:45:45;15.51;64.17
60242;SHT30;46103;52.076;113.488;2022-09-09T18:48:49;15.40;64.67
60242;SHT30;46103;52.076;113.488;2022-09-09T18:51:53;15.33;64.44
60242;SHT30;46103;52.076;113.488;2022-09-09T18:54:58;15.29;64.72
60242;SHT30;46103;52.076;113.488;2022-09-09T18:58:02;15.22;65.14
60242;SHT30;46103;52.076;113.488;2022-09-09T19:01:09;15.15;65.41
60242;SHT30;46103;52.076;113.488;2022-09-09T19:04:15;15.13;65.88
60242;SHT30;46103;52.076;113.488;2022-09-09T19:07:19;15.05;65.74
60242;SHT30;46103;52.076;113.488;2022-09-09T19:10:24;15.00;66.20
60242;SHT30;46103;52.076;113.488;2022-09-09T19:13:27;14.96;65.97
60242;SHT30;46103;52.076;113.488;2022-09-09T19:16:33;14.81;65.79
60242;SHT30;46103;52.076;113.488;2022-09-09T19:19:37;14.81;66.35
60242;SHT30;46103;52.076;113.488;2022-09-09T19:22:45;14.75;66.78
60242;SHT30;46103;52.076;113.488;2022-09-09T19:25:49;14.64;66.83
60242;SHT30;46103;52.076;113.488;2022-09-09T19:28:52;14.56;67.04
60242;SHT30;46103;52.076;113.488;2022-09-09T19:31:57;14.54;67.36
60242;SHT30;46103;52.076;113.488;2022-09-09T19:35:22;14.48;67.17
60242;SHT30;46103;52.076;113.488;2022-09-09T19:38:25;14.42;63.84
60242;SHT30;46103;52.076;113.488;2022-09-09T19:41:29;14.52;62.11
60242;SHT30;46103;52.076;113.488;2022-09-09T19:44:35;14.60;59.53
60242;SHT30;46103;52.076;113.488;2022-09-09T19:47:39;14.64;60.15
60242;SHT30;46103;52.076;113.488;2022-09-09T19:50:44;14.61;61.14
60242;SHT30;46103;52.076;113.488;2022-09-09T19:53:53;14.60;60.55
60242;SHT30;46103;52.076;113.488;2022-09-09T19:56:58;14.57;61.08
60242;SHT30;46103;52.076;113.488;2022-09-09T20:00:03;14.47;59.30
60242;SHT30;46103;52.076;113.488;2022-09-09T20:03:12;14.57;61.25
60242;SHT30;46103;52.076;113.488;2022-09-09T20:06:24;14.52;60.93
60242;SHT30;46103;52.076;113.488;2022-09-09T20:09:31;14.50;60.37
60242;SHT30;46103;52.076;113.488;2022-09-09T20:12:34;14.48;60.08
60242;SHT30;46103;52.076;113.488;2022-09-09T20:15:37;14.47;60.70
60242;SHT30;46103;52.076;113.488;2022-09-09T20:18:46;14.45;60.32
60242;SHT30;46103;52.076;113.488;2022-09-09T20:21:51;14.40;63.88
60242;SHT30;46103;52.076;113.488;2022-09-09T20:24:55;14.27;63.99
60242;SHT30;46103;52.076;113.488;2022-09-09T20:27:58;14.19;63.09
60242;SHT30;46103;52.076;113.488;2022-09-09T20:31:06;14.12;61.82
60242;SHT30;46103;52.076;113.488;2022-09-09T20:34:13;14.06;61.34
60242;SHT30;46103;52.076;113.488;2022-09-09T20:37:16;14.08;62.17
60242;SHT30;46103;52.076;113.488;2022-09-09T20:40:22;14.03;64.43
60242;SHT30;46103;52.076;113.488;2022-09-09T20:43:26;13.96;65.79
60242;SHT30;46103;52.076;113.488;2022-09-09T20:46:36;13.95;66.50
60242;SHT30;46103;52.076;113.488;2022-09-09T20:49:39;13.89;64.76
60242;SHT30;46103;52.076;113.488;2022-09-09T20:52:43;13.76;67.54
60242;SHT30;46103;52.076;113.488;2022-09-09T20:55:47;13.53;67.56
60242;SHT30;46103;52.076;113.488;2022-09-09T20:58:53;13.46;67.89
60242;SHT30;46103;52.076;113.488;2022-09-09T21:01:58;13.50;66.36
60242;SHT30;46103;52.076;113.488;2022-09-09T21:05:03;13.58;67.63
60242;SHT30;46103;52.076;113.488;2022-09-09T21:08:07;13.59;66.48
60242;SHT30;46103;52.076;113.488;2022-09-09T21:11:12;13.57;67.66
60242;SHT30;46103;52.076;113.488;2022-09-09T21:14:16;13.54;68.24